<?xml version="1.0" encoding="UTF-8" standalone="no" ?>
<gpx xmlns="http://www.topografix.com/GPX/1/1" xmlns:xsi="http://www.w3.org/2001/XMLSchema-instance" xsi:schemaLocation="http://www.topografix.com/GPX/1/1 http://www.topografix.com/GPX/1/1/gpx.xsd" version="1.1" creator="VisuGPX - https://www.visugpx.com">
  <metadata>
    <name>Tourtouse Bédeille Maillau Rivèrelens retour jeudi 16 12 2021 3,1 km/h 3h10</name>
  </metadata>
  <trk>
    <name><![CDATA[Tourtouse Bédeille Maillau Rivèrelens retour jeudi 16 12 2021 3,1 km/h 3h10]]></name>
    <trkseg>
      <trkpt lat="43.09243" lon="1.1248">
        <ele>410</ele>
        <time>2021-12-16T13:48:37+01:00</time>
      </trkpt>
      <trkpt lat="43.09253" lon="1.12451">
        <ele>411</ele>
        <time>2021-12-16T13:48:59+01:00</time>
      </trkpt>
      <trkpt lat="43.09253" lon="1.12419">
        <ele>411</ele>
        <time>2021-12-16T13:49:19+01:00</time>
      </trkpt>
      <trkpt lat="43.0926" lon="1.12389">
        <ele>411</ele>
        <time>2021-12-16T13:49:34+01:00</time>
      </trkpt>
      <trkpt lat="43.09257" lon="1.12358">
        <ele>411</ele>
        <time>2021-12-16T13:49:52+01:00</time>
      </trkpt>
      <trkpt lat="43.09247" lon="1.1233">
        <ele>416</ele>
        <time>2021-12-16T13:50:14+01:00</time>
      </trkpt>
      <trkpt lat="43.09235" lon="1.12303">
        <ele>420</ele>
        <time>2021-12-16T13:50:34+01:00</time>
      </trkpt>
      <trkpt lat="43.09221" lon="1.12278">
        <ele>426</ele>
        <time>2021-12-16T13:50:56+01:00</time>
      </trkpt>
      <trkpt lat="43.09206" lon="1.12253">
        <ele>423</ele>
        <time>2021-12-16T13:51:17+01:00</time>
      </trkpt>
      <trkpt lat="43.09186" lon="1.12235">
        <ele>429</ele>
        <time>2021-12-16T13:51:36+01:00</time>
      </trkpt>
      <trkpt lat="43.09171" lon="1.12211">
        <ele>428</ele>
        <time>2021-12-16T13:51:53+01:00</time>
      </trkpt>
      <trkpt lat="43.09156" lon="1.12188">
        <ele>427</ele>
        <time>2021-12-16T13:52:09+01:00</time>
      </trkpt>
      <trkpt lat="43.09136" lon="1.12173">
        <ele>427</ele>
        <time>2021-12-16T13:52:30+01:00</time>
      </trkpt>
      <trkpt lat="43.09116" lon="1.12155">
        <ele>432</ele>
        <time>2021-12-16T13:52:51+01:00</time>
      </trkpt>
      <trkpt lat="43.09096" lon="1.12139">
        <ele>436</ele>
        <time>2021-12-16T13:53:14+01:00</time>
      </trkpt>
      <trkpt lat="43.09079" lon="1.12119">
        <ele>431</ele>
        <time>2021-12-16T13:53:36+01:00</time>
      </trkpt>
      <trkpt lat="43.09062" lon="1.12099">
        <ele>439</ele>
        <time>2021-12-16T13:54:13+01:00</time>
      </trkpt>
      <trkpt lat="43.09049" lon="1.12073">
        <ele>441</ele>
        <time>2021-12-16T13:54:31+01:00</time>
      </trkpt>
      <trkpt lat="43.09035" lon="1.12047">
        <ele>446</ele>
        <time>2021-12-16T13:54:48+01:00</time>
      </trkpt>
      <trkpt lat="43.09022" lon="1.12021">
        <ele>444</ele>
        <time>2021-12-16T13:55:06+01:00</time>
      </trkpt>
      <trkpt lat="43.09002" lon="1.12005">
        <ele>445</ele>
        <time>2021-12-16T13:55:27+01:00</time>
      </trkpt>
      <trkpt lat="43.0898" lon="1.12">
        <ele>446</ele>
        <time>2021-12-16T13:55:43+01:00</time>
      </trkpt>
      <trkpt lat="43.0896" lon="1.11984">
        <ele>443</ele>
        <time>2021-12-16T13:57:05+01:00</time>
      </trkpt>
      <trkpt lat="43.08952" lon="1.11955">
        <ele>448</ele>
        <time>2021-12-16T13:57:33+01:00</time>
      </trkpt>
      <trkpt lat="43.08953" lon="1.11922">
        <ele>449</ele>
        <time>2021-12-16T13:58:06+01:00</time>
      </trkpt>
      <trkpt lat="43.08954" lon="1.11889">
        <ele>449</ele>
        <time>2021-12-16T13:58:23+01:00</time>
      </trkpt>
      <trkpt lat="43.0896" lon="1.11858">
        <ele>454</ele>
        <time>2021-12-16T13:59:15+01:00</time>
      </trkpt>
      <trkpt lat="43.08969" lon="1.11826">
        <ele>457</ele>
        <time>2021-12-16T13:59:37+01:00</time>
      </trkpt>
      <trkpt lat="43.08974" lon="1.11794">
        <ele>462</ele>
        <time>2021-12-16T13:59:56+01:00</time>
      </trkpt>
      <trkpt lat="43.08974" lon="1.11761">
        <ele>466</ele>
        <time>2021-12-16T14:00:08+01:00</time>
      </trkpt>
      <trkpt lat="43.08981" lon="1.11729">
        <ele>474</ele>
        <time>2021-12-16T14:00:26+01:00</time>
      </trkpt>
      <trkpt lat="43.08977" lon="1.11698">
        <ele>485</ele>
        <time>2021-12-16T14:00:47+01:00</time>
      </trkpt>
      <trkpt lat="43.08977" lon="1.11667">
        <ele>489</ele>
        <time>2021-12-16T14:01:23+01:00</time>
      </trkpt>
      <trkpt lat="43.08981" lon="1.11636">
        <ele>488</ele>
        <time>2021-12-16T14:01:43+01:00</time>
      </trkpt>
      <trkpt lat="43.08989" lon="1.11607">
        <ele>490</ele>
        <time>2021-12-16T14:02:05+01:00</time>
      </trkpt>
      <trkpt lat="43.08989" lon="1.11575">
        <ele>492</ele>
        <time>2021-12-16T14:02:32+01:00</time>
      </trkpt>
      <trkpt lat="43.0899" lon="1.11544">
        <ele>485</ele>
        <time>2021-12-16T14:03:00+01:00</time>
      </trkpt>
      <trkpt lat="43.08992" lon="1.11512">
        <ele>483</ele>
        <time>2021-12-16T14:03:18+01:00</time>
      </trkpt>
      <trkpt lat="43.08982" lon="1.11484">
        <ele>481</ele>
        <time>2021-12-16T14:03:49+01:00</time>
      </trkpt>
      <trkpt lat="43.08974" lon="1.11455">
        <ele>482</ele>
        <time>2021-12-16T14:04:16+01:00</time>
      </trkpt>
      <trkpt lat="43.08977" lon="1.11424">
        <ele>487</ele>
        <time>2021-12-16T14:04:38+01:00</time>
      </trkpt>
      <trkpt lat="43.08979" lon="1.11392">
        <ele>488</ele>
        <time>2021-12-16T14:04:55+01:00</time>
      </trkpt>
      <trkpt lat="43.08964" lon="1.11369">
        <ele>487</ele>
        <time>2021-12-16T14:05:27+01:00</time>
      </trkpt>
      <trkpt lat="43.08953" lon="1.11341">
        <ele>487</ele>
        <time>2021-12-16T14:06:01+01:00</time>
      </trkpt>
      <trkpt lat="43.08943" lon="1.11312">
        <ele>492</ele>
        <time>2021-12-16T14:06:24+01:00</time>
      </trkpt>
      <trkpt lat="43.08934" lon="1.11283">
        <ele>496</ele>
        <time>2021-12-16T14:06:44+01:00</time>
      </trkpt>
      <trkpt lat="43.08923" lon="1.11255">
        <ele>494</ele>
        <time>2021-12-16T14:07:12+01:00</time>
      </trkpt>
      <trkpt lat="43.08922" lon="1.11224">
        <ele>495</ele>
        <time>2021-12-16T14:07:40+01:00</time>
      </trkpt>
      <trkpt lat="43.08915" lon="1.11194">
        <ele>501</ele>
        <time>2021-12-16T14:08:07+01:00</time>
      </trkpt>
      <trkpt lat="43.08909" lon="1.11164">
        <ele>505</ele>
        <time>2021-12-16T14:09:04+01:00</time>
      </trkpt>
      <trkpt lat="43.08898" lon="1.11136">
        <ele>514</ele>
        <time>2021-12-16T14:09:27+01:00</time>
      </trkpt>
      <trkpt lat="43.08887" lon="1.11109">
        <ele>517</ele>
        <time>2021-12-16T14:10:04+01:00</time>
      </trkpt>
      <trkpt lat="43.08869" lon="1.1109">
        <ele>518</ele>
        <time>2021-12-16T14:10:23+01:00</time>
      </trkpt>
      <trkpt lat="43.0885" lon="1.11071">
        <ele>524</ele>
        <time>2021-12-16T14:10:57+01:00</time>
      </trkpt>
      <trkpt lat="43.08834" lon="1.11048">
        <ele>526</ele>
        <time>2021-12-16T14:11:52+01:00</time>
      </trkpt>
      <trkpt lat="43.08817" lon="1.11028">
        <ele>531</ele>
        <time>2021-12-16T14:12:17+01:00</time>
      </trkpt>
      <trkpt lat="43.08803" lon="1.11002">
        <ele>536</ele>
        <time>2021-12-16T14:20:13+01:00</time>
      </trkpt>
      <trkpt lat="43.08781" lon="1.10993">
        <ele>555</ele>
        <time>2021-12-16T14:20:59+01:00</time>
      </trkpt>
      <trkpt lat="43.08768" lon="1.10967">
        <ele>543</ele>
        <time>2021-12-16T14:22:22+01:00</time>
      </trkpt>
      <trkpt lat="43.08767" lon="1.10936">
        <ele>543</ele>
        <time>2021-12-16T14:22:41+01:00</time>
      </trkpt>
      <trkpt lat="43.08769" lon="1.10905">
        <ele>540</ele>
        <time>2021-12-16T14:23:01+01:00</time>
      </trkpt>
      <trkpt lat="43.08775" lon="1.10875">
        <ele>538</ele>
        <time>2021-12-16T14:23:29+01:00</time>
      </trkpt>
      <trkpt lat="43.08784" lon="1.10845">
        <ele>537</ele>
        <time>2021-12-16T14:23:49+01:00</time>
      </trkpt>
      <trkpt lat="43.08789" lon="1.10813">
        <ele>533</ele>
        <time>2021-12-16T14:24:09+01:00</time>
      </trkpt>
      <trkpt lat="43.08791" lon="1.10782">
        <ele>531</ele>
        <time>2021-12-16T14:24:27+01:00</time>
      </trkpt>
      <trkpt lat="43.08796" lon="1.10751">
        <ele>531</ele>
        <time>2021-12-16T14:24:50+01:00</time>
      </trkpt>
      <trkpt lat="43.08802" lon="1.1072">
        <ele>529</ele>
        <time>2021-12-16T14:25:12+01:00</time>
      </trkpt>
      <trkpt lat="43.08808" lon="1.1069">
        <ele>528</ele>
        <time>2021-12-16T14:25:34+01:00</time>
      </trkpt>
      <trkpt lat="43.0881" lon="1.10658">
        <ele>526</ele>
        <time>2021-12-16T14:25:56+01:00</time>
      </trkpt>
      <trkpt lat="43.08818" lon="1.10628">
        <ele>523</ele>
        <time>2021-12-16T14:26:18+01:00</time>
      </trkpt>
      <trkpt lat="43.08824" lon="1.10598">
        <ele>518</ele>
        <time>2021-12-16T14:26:42+01:00</time>
      </trkpt>
      <trkpt lat="43.08827" lon="1.10566">
        <ele>518</ele>
        <time>2021-12-16T14:27:07+01:00</time>
      </trkpt>
      <trkpt lat="43.08832" lon="1.10535">
        <ele>516</ele>
        <time>2021-12-16T14:27:32+01:00</time>
      </trkpt>
      <trkpt lat="43.08834" lon="1.10504">
        <ele>515</ele>
        <time>2021-12-16T14:27:53+01:00</time>
      </trkpt>
      <trkpt lat="43.08839" lon="1.10473">
        <ele>510</ele>
        <time>2021-12-16T14:28:18+01:00</time>
      </trkpt>
      <trkpt lat="43.08843" lon="1.10443">
        <ele>509</ele>
        <time>2021-12-16T14:28:44+01:00</time>
      </trkpt>
      <trkpt lat="43.0882" lon="1.10443">
        <ele>501</ele>
        <time>2021-12-16T14:29:27+01:00</time>
      </trkpt>
      <trkpt lat="43.08797" lon="1.10447">
        <ele>503</ele>
        <time>2021-12-16T14:29:49+01:00</time>
      </trkpt>
      <trkpt lat="43.08779" lon="1.10428">
        <ele>501</ele>
        <time>2021-12-16T14:30:13+01:00</time>
      </trkpt>
      <trkpt lat="43.08784" lon="1.10397">
        <ele>499</ele>
        <time>2021-12-16T14:30:34+01:00</time>
      </trkpt>
      <trkpt lat="43.08774" lon="1.10369">
        <ele>499</ele>
        <time>2021-12-16T14:30:58+01:00</time>
      </trkpt>
      <trkpt lat="43.08782" lon="1.10339">
        <ele>500</ele>
        <time>2021-12-16T14:31:16+01:00</time>
      </trkpt>
      <trkpt lat="43.08789" lon="1.1031">
        <ele>498</ele>
        <time>2021-12-16T14:31:43+01:00</time>
      </trkpt>
      <trkpt lat="43.08796" lon="1.10279">
        <ele>496</ele>
        <time>2021-12-16T14:32:01+01:00</time>
      </trkpt>
      <trkpt lat="43.08805" lon="1.1025">
        <ele>497</ele>
        <time>2021-12-16T14:32:36+01:00</time>
      </trkpt>
      <trkpt lat="43.08807" lon="1.10218">
        <ele>496</ele>
        <time>2021-12-16T14:32:50+01:00</time>
      </trkpt>
      <trkpt lat="43.0881" lon="1.10187">
        <ele>494</ele>
        <time>2021-12-16T14:33:10+01:00</time>
      </trkpt>
      <trkpt lat="43.08819" lon="1.10158">
        <ele>490</ele>
        <time>2021-12-16T14:33:36+01:00</time>
      </trkpt>
      <trkpt lat="43.08824" lon="1.10127">
        <ele>490</ele>
        <time>2021-12-16T14:33:55+01:00</time>
      </trkpt>
      <trkpt lat="43.08833" lon="1.10098">
        <ele>487</ele>
        <time>2021-12-16T14:34:21+01:00</time>
      </trkpt>
      <trkpt lat="43.0884" lon="1.10069">
        <ele>482</ele>
        <time>2021-12-16T14:34:42+01:00</time>
      </trkpt>
      <trkpt lat="43.08845" lon="1.10038">
        <ele>481</ele>
        <time>2021-12-16T14:35:04+01:00</time>
      </trkpt>
      <trkpt lat="43.08852" lon="1.10009">
        <ele>477</ele>
        <time>2021-12-16T14:35:26+01:00</time>
      </trkpt>
      <trkpt lat="43.08862" lon="1.0998">
        <ele>474</ele>
        <time>2021-12-16T14:35:49+01:00</time>
      </trkpt>
      <trkpt lat="43.08867" lon="1.0995">
        <ele>471</ele>
        <time>2021-12-16T14:36:12+01:00</time>
      </trkpt>
      <trkpt lat="43.08873" lon="1.0992">
        <ele>468</ele>
        <time>2021-12-16T14:36:38+01:00</time>
      </trkpt>
      <trkpt lat="43.08883" lon="1.09892">
        <ele>468</ele>
        <time>2021-12-16T14:36:59+01:00</time>
      </trkpt>
      <trkpt lat="43.08883" lon="1.09859">
        <ele>466</ele>
        <time>2021-12-16T14:38:29+01:00</time>
      </trkpt>
      <trkpt lat="43.08874" lon="1.09831">
        <ele>466</ele>
        <time>2021-12-16T14:38:50+01:00</time>
      </trkpt>
      <trkpt lat="43.08868" lon="1.098">
        <ele>467</ele>
        <time>2021-12-16T14:39:15+01:00</time>
      </trkpt>
      <trkpt lat="43.08866" lon="1.09769">
        <ele>469</ele>
        <time>2021-12-16T14:39:39+01:00</time>
      </trkpt>
      <trkpt lat="43.08867" lon="1.09738">
        <ele>467</ele>
        <time>2021-12-16T14:40:01+01:00</time>
      </trkpt>
      <trkpt lat="43.08847" lon="1.09753">
        <ele>474</ele>
        <time>2021-12-16T14:41:00+01:00</time>
      </trkpt>
      <trkpt lat="43.08828" lon="1.0977">
        <ele>476</ele>
        <time>2021-12-16T14:41:25+01:00</time>
      </trkpt>
      <trkpt lat="43.08808" lon="1.09786">
        <ele>480</ele>
        <time>2021-12-16T14:41:47+01:00</time>
      </trkpt>
      <trkpt lat="43.08791" lon="1.09808">
        <ele>479</ele>
        <time>2021-12-16T14:42:14+01:00</time>
      </trkpt>
      <trkpt lat="43.08776" lon="1.0983">
        <ele>480</ele>
        <time>2021-12-16T14:42:39+01:00</time>
      </trkpt>
      <trkpt lat="43.0876" lon="1.09852">
        <ele>480</ele>
        <time>2021-12-16T14:43:06+01:00</time>
      </trkpt>
      <trkpt lat="43.08747" lon="1.09878">
        <ele>485</ele>
        <time>2021-12-16T14:43:25+01:00</time>
      </trkpt>
      <trkpt lat="43.08736" lon="1.09907">
        <ele>487</ele>
        <time>2021-12-16T14:43:47+01:00</time>
      </trkpt>
      <trkpt lat="43.08727" lon="1.09936">
        <ele>488</ele>
        <time>2021-12-16T14:44:14+01:00</time>
      </trkpt>
      <trkpt lat="43.08724" lon="1.09967">
        <ele>490</ele>
        <time>2021-12-16T14:44:43+01:00</time>
      </trkpt>
      <trkpt lat="43.08724" lon="1.09998">
        <ele>488</ele>
        <time>2021-12-16T14:45:03+01:00</time>
      </trkpt>
      <trkpt lat="43.08717" lon="1.10029">
        <ele>487</ele>
        <time>2021-12-16T14:45:27+01:00</time>
      </trkpt>
      <trkpt lat="43.08713" lon="1.10059">
        <ele>486</ele>
        <time>2021-12-16T14:45:49+01:00</time>
      </trkpt>
      <trkpt lat="43.08708" lon="1.1009">
        <ele>489</ele>
        <time>2021-12-16T14:46:12+01:00</time>
      </trkpt>
      <trkpt lat="43.08704" lon="1.10121">
        <ele>489</ele>
        <time>2021-12-16T14:46:36+01:00</time>
      </trkpt>
      <trkpt lat="43.08699" lon="1.10152">
        <ele>492</ele>
        <time>2021-12-16T14:46:57+01:00</time>
      </trkpt>
      <trkpt lat="43.08696" lon="1.10182">
        <ele>491</ele>
        <time>2021-12-16T14:47:18+01:00</time>
      </trkpt>
      <trkpt lat="43.08695" lon="1.10214">
        <ele>491</ele>
        <time>2021-12-16T14:47:40+01:00</time>
      </trkpt>
      <trkpt lat="43.08696" lon="1.10246">
        <ele>492</ele>
        <time>2021-12-16T14:48:02+01:00</time>
      </trkpt>
      <trkpt lat="43.08702" lon="1.10276">
        <ele>494</ele>
        <time>2021-12-16T14:48:22+01:00</time>
      </trkpt>
      <trkpt lat="43.08703" lon="1.10309">
        <ele>493</ele>
        <time>2021-12-16T14:48:59+01:00</time>
      </trkpt>
      <trkpt lat="43.08707" lon="1.1034">
        <ele>493</ele>
        <time>2021-12-16T14:49:21+01:00</time>
      </trkpt>
      <trkpt lat="43.08704" lon="1.10373">
        <ele>494</ele>
        <time>2021-12-16T14:49:43+01:00</time>
      </trkpt>
      <trkpt lat="43.08697" lon="1.10403">
        <ele>496</ele>
        <time>2021-12-16T14:50:01+01:00</time>
      </trkpt>
      <trkpt lat="43.08687" lon="1.10431">
        <ele>497</ele>
        <time>2021-12-16T14:50:21+01:00</time>
      </trkpt>
      <trkpt lat="43.08678" lon="1.10461">
        <ele>495</ele>
        <time>2021-12-16T14:50:43+01:00</time>
      </trkpt>
      <trkpt lat="43.08671" lon="1.1049">
        <ele>496</ele>
        <time>2021-12-16T14:51:04+01:00</time>
      </trkpt>
      <trkpt lat="43.08665" lon="1.10521">
        <ele>496</ele>
        <time>2021-12-16T14:51:25+01:00</time>
      </trkpt>
      <trkpt lat="43.08656" lon="1.1055">
        <ele>496</ele>
        <time>2021-12-16T14:51:45+01:00</time>
      </trkpt>
      <trkpt lat="43.08647" lon="1.10579">
        <ele>493</ele>
        <time>2021-12-16T14:52:07+01:00</time>
      </trkpt>
      <trkpt lat="43.08641" lon="1.1061">
        <ele>493</ele>
        <time>2021-12-16T14:52:28+01:00</time>
      </trkpt>
      <trkpt lat="43.08631" lon="1.10639">
        <ele>492</ele>
        <time>2021-12-16T14:52:50+01:00</time>
      </trkpt>
      <trkpt lat="43.08623" lon="1.10669">
        <ele>491</ele>
        <time>2021-12-16T14:53:10+01:00</time>
      </trkpt>
      <trkpt lat="43.08614" lon="1.10699">
        <ele>491</ele>
        <time>2021-12-16T14:53:29+01:00</time>
      </trkpt>
      <trkpt lat="43.08603" lon="1.10727">
        <ele>490</ele>
        <time>2021-12-16T14:53:51+01:00</time>
      </trkpt>
      <trkpt lat="43.08589" lon="1.10752">
        <ele>484</ele>
        <time>2021-12-16T14:54:13+01:00</time>
      </trkpt>
      <trkpt lat="43.08576" lon="1.10778">
        <ele>484</ele>
        <time>2021-12-16T14:54:32+01:00</time>
      </trkpt>
      <trkpt lat="43.08567" lon="1.10807">
        <ele>485</ele>
        <time>2021-12-16T14:54:52+01:00</time>
      </trkpt>
      <trkpt lat="43.08554" lon="1.10833">
        <ele>485</ele>
        <time>2021-12-16T14:55:13+01:00</time>
      </trkpt>
      <trkpt lat="43.08543" lon="1.10859">
        <ele>487</ele>
        <time>2021-12-16T14:55:35+01:00</time>
      </trkpt>
      <trkpt lat="43.08524" lon="1.10878">
        <ele>484</ele>
        <time>2021-12-16T14:58:44+01:00</time>
      </trkpt>
      <trkpt lat="43.08509" lon="1.10854">
        <ele>480</ele>
        <time>2021-12-16T15:00:03+01:00</time>
      </trkpt>
      <trkpt lat="43.08485" lon="1.10846">
        <ele>479</ele>
        <time>2021-12-16T15:00:42+01:00</time>
      </trkpt>
      <trkpt lat="43.08464" lon="1.10834">
        <ele>479</ele>
        <time>2021-12-16T15:00:55+01:00</time>
      </trkpt>
      <trkpt lat="43.08439" lon="1.10833">
        <ele>478</ele>
        <time>2021-12-16T15:01:44+01:00</time>
      </trkpt>
      <trkpt lat="43.08416" lon="1.1084">
        <ele>478</ele>
        <time>2021-12-16T15:02:00+01:00</time>
      </trkpt>
      <trkpt lat="43.08394" lon="1.1085">
        <ele>482</ele>
        <time>2021-12-16T15:02:34+01:00</time>
      </trkpt>
      <trkpt lat="43.08375" lon="1.10868">
        <ele>484</ele>
        <time>2021-12-16T15:03:15+01:00</time>
      </trkpt>
      <trkpt lat="43.08357" lon="1.10888">
        <ele>486</ele>
        <time>2021-12-16T15:03:33+01:00</time>
      </trkpt>
      <trkpt lat="43.08339" lon="1.10909">
        <ele>488</ele>
        <time>2021-12-16T15:04:11+01:00</time>
      </trkpt>
      <trkpt lat="43.08324" lon="1.10933">
        <ele>489</ele>
        <time>2021-12-16T15:04:40+01:00</time>
      </trkpt>
      <trkpt lat="43.08301" lon="1.10946">
        <ele>486</ele>
        <time>2021-12-16T15:05:14+01:00</time>
      </trkpt>
      <trkpt lat="43.0828" lon="1.1096">
        <ele>487</ele>
        <time>2021-12-16T15:05:30+01:00</time>
      </trkpt>
      <trkpt lat="43.0826" lon="1.10975">
        <ele>490</ele>
        <time>2021-12-16T15:05:57+01:00</time>
      </trkpt>
      <trkpt lat="43.08238" lon="1.10987">
        <ele>491</ele>
        <time>2021-12-16T15:07:40+01:00</time>
      </trkpt>
      <trkpt lat="43.08217" lon="1.10996">
        <ele>489</ele>
        <time>2021-12-16T15:08:02+01:00</time>
      </trkpt>
      <trkpt lat="43.08195" lon="1.11006">
        <ele>490</ele>
        <time>2021-12-16T15:08:25+01:00</time>
      </trkpt>
      <trkpt lat="43.08173" lon="1.11016">
        <ele>493</ele>
        <time>2021-12-16T15:08:49+01:00</time>
      </trkpt>
      <trkpt lat="43.08154" lon="1.11033">
        <ele>493</ele>
        <time>2021-12-16T15:09:10+01:00</time>
      </trkpt>
      <trkpt lat="43.0814" lon="1.11058">
        <ele>493</ele>
        <time>2021-12-16T15:09:30+01:00</time>
      </trkpt>
      <trkpt lat="43.08132" lon="1.11089">
        <ele>494</ele>
        <time>2021-12-16T15:09:53+01:00</time>
      </trkpt>
      <trkpt lat="43.08125" lon="1.11118">
        <ele>494</ele>
        <time>2021-12-16T15:10:15+01:00</time>
      </trkpt>
      <trkpt lat="43.08115" lon="1.11147">
        <ele>493</ele>
        <time>2021-12-16T15:10:48+01:00</time>
      </trkpt>
      <trkpt lat="43.08106" lon="1.11176">
        <ele>493</ele>
        <time>2021-12-16T15:11:06+01:00</time>
      </trkpt>
      <trkpt lat="43.08098" lon="1.11206">
        <ele>491</ele>
        <time>2021-12-16T15:11:27+01:00</time>
      </trkpt>
      <trkpt lat="43.08086" lon="1.11232">
        <ele>492</ele>
        <time>2021-12-16T15:11:50+01:00</time>
      </trkpt>
      <trkpt lat="43.08073" lon="1.11259">
        <ele>490</ele>
        <time>2021-12-16T15:12:16+01:00</time>
      </trkpt>
      <trkpt lat="43.08059" lon="1.11284">
        <ele>493</ele>
        <time>2021-12-16T15:12:39+01:00</time>
      </trkpt>
      <trkpt lat="43.08038" lon="1.11296">
        <ele>487</ele>
        <time>2021-12-16T15:13:00+01:00</time>
      </trkpt>
      <trkpt lat="43.08014" lon="1.11299">
        <ele>483</ele>
        <time>2021-12-16T15:13:18+01:00</time>
      </trkpt>
      <trkpt lat="43.07993" lon="1.11311">
        <ele>482</ele>
        <time>2021-12-16T15:13:43+01:00</time>
      </trkpt>
      <trkpt lat="43.07981" lon="1.11338">
        <ele>483</ele>
        <time>2021-12-16T15:14:02+01:00</time>
      </trkpt>
      <trkpt lat="43.07964" lon="1.1136">
        <ele>482</ele>
        <time>2021-12-16T15:14:22+01:00</time>
      </trkpt>
      <trkpt lat="43.07949" lon="1.11384">
        <ele>484</ele>
        <time>2021-12-16T15:14:46+01:00</time>
      </trkpt>
      <trkpt lat="43.07937" lon="1.11411">
        <ele>486</ele>
        <time>2021-12-16T15:15:06+01:00</time>
      </trkpt>
      <trkpt lat="43.07925" lon="1.11437">
        <ele>482</ele>
        <time>2021-12-16T15:15:27+01:00</time>
      </trkpt>
      <trkpt lat="43.07919" lon="1.11468">
        <ele>480</ele>
        <time>2021-12-16T15:15:48+01:00</time>
      </trkpt>
      <trkpt lat="43.07913" lon="1.11498">
        <ele>485</ele>
        <time>2021-12-16T15:16:09+01:00</time>
      </trkpt>
      <trkpt lat="43.07902" lon="1.11525">
        <ele>485</ele>
        <time>2021-12-16T15:16:33+01:00</time>
      </trkpt>
      <trkpt lat="43.07887" lon="1.11548">
        <ele>487</ele>
        <time>2021-12-16T15:16:52+01:00</time>
      </trkpt>
      <trkpt lat="43.07871" lon="1.11572">
        <ele>486</ele>
        <time>2021-12-16T15:17:07+01:00</time>
      </trkpt>
      <trkpt lat="43.07854" lon="1.11593">
        <ele>485</ele>
        <time>2021-12-16T15:17:26+01:00</time>
      </trkpt>
      <trkpt lat="43.07842" lon="1.1162">
        <ele>485</ele>
        <time>2021-12-16T15:17:46+01:00</time>
      </trkpt>
      <trkpt lat="43.07844" lon="1.11651">
        <ele>486</ele>
        <time>2021-12-16T15:18:05+01:00</time>
      </trkpt>
      <trkpt lat="43.07853" lon="1.1168">
        <ele>483</ele>
        <time>2021-12-16T15:18:27+01:00</time>
      </trkpt>
      <trkpt lat="43.07853" lon="1.11713">
        <ele>482</ele>
        <time>2021-12-16T15:18:47+01:00</time>
      </trkpt>
      <trkpt lat="43.07849" lon="1.11743">
        <ele>483</ele>
        <time>2021-12-16T15:19:08+01:00</time>
      </trkpt>
      <trkpt lat="43.07841" lon="1.11773">
        <ele>482</ele>
        <time>2021-12-16T15:19:26+01:00</time>
      </trkpt>
      <trkpt lat="43.0784" lon="1.11804">
        <ele>485</ele>
        <time>2021-12-16T15:19:46+01:00</time>
      </trkpt>
      <trkpt lat="43.07833" lon="1.11834">
        <ele>489</ele>
        <time>2021-12-16T15:20:08+01:00</time>
      </trkpt>
      <trkpt lat="43.07828" lon="1.11864">
        <ele>493</ele>
        <time>2021-12-16T15:20:26+01:00</time>
      </trkpt>
      <trkpt lat="43.07825" lon="1.11895">
        <ele>494</ele>
        <time>2021-12-16T15:20:48+01:00</time>
      </trkpt>
      <trkpt lat="43.07819" lon="1.11926">
        <ele>493</ele>
        <time>2021-12-16T15:21:10+01:00</time>
      </trkpt>
      <trkpt lat="43.07806" lon="1.11953">
        <ele>486</ele>
        <time>2021-12-16T15:21:30+01:00</time>
      </trkpt>
      <trkpt lat="43.07792" lon="1.11978">
        <ele>484</ele>
        <time>2021-12-16T15:21:54+01:00</time>
      </trkpt>
      <trkpt lat="43.07788" lon="1.1201">
        <ele>485</ele>
        <time>2021-12-16T15:22:20+01:00</time>
      </trkpt>
      <trkpt lat="43.07785" lon="1.12041">
        <ele>481</ele>
        <time>2021-12-16T15:22:43+01:00</time>
      </trkpt>
      <trkpt lat="43.07788" lon="1.12073">
        <ele>473</ele>
        <time>2021-12-16T15:23:01+01:00</time>
      </trkpt>
      <trkpt lat="43.07788" lon="1.12104">
        <ele>470</ele>
        <time>2021-12-16T15:23:21+01:00</time>
      </trkpt>
      <trkpt lat="43.07785" lon="1.12135">
        <ele>474</ele>
        <time>2021-12-16T15:23:42+01:00</time>
      </trkpt>
      <trkpt lat="43.07773" lon="1.12162">
        <ele>476</ele>
        <time>2021-12-16T15:24:05+01:00</time>
      </trkpt>
      <trkpt lat="43.07767" lon="1.12193">
        <ele>474</ele>
        <time>2021-12-16T15:24:23+01:00</time>
      </trkpt>
      <trkpt lat="43.07764" lon="1.12224">
        <ele>473</ele>
        <time>2021-12-16T15:24:45+01:00</time>
      </trkpt>
      <trkpt lat="43.07755" lon="1.12252">
        <ele>476</ele>
        <time>2021-12-16T15:25:06+01:00</time>
      </trkpt>
      <trkpt lat="43.07746" lon="1.12282">
        <ele>467</ele>
        <time>2021-12-16T15:25:26+01:00</time>
      </trkpt>
      <trkpt lat="43.07748" lon="1.12313">
        <ele>467</ele>
        <time>2021-12-16T15:25:43+01:00</time>
      </trkpt>
      <trkpt lat="43.07746" lon="1.12344">
        <ele>466</ele>
        <time>2021-12-16T15:26:06+01:00</time>
      </trkpt>
      <trkpt lat="43.07743" lon="1.12375">
        <ele>466</ele>
        <time>2021-12-16T15:26:28+01:00</time>
      </trkpt>
      <trkpt lat="43.0774" lon="1.12407">
        <ele>470</ele>
        <time>2021-12-16T15:26:50+01:00</time>
      </trkpt>
      <trkpt lat="43.07732" lon="1.12437">
        <ele>465</ele>
        <time>2021-12-16T15:27:13+01:00</time>
      </trkpt>
      <trkpt lat="43.07732" lon="1.12468">
        <ele>463</ele>
        <time>2021-12-16T15:28:52+01:00</time>
      </trkpt>
      <trkpt lat="43.07745" lon="1.12493">
        <ele>458</ele>
        <time>2021-12-16T15:29:19+01:00</time>
      </trkpt>
      <trkpt lat="43.07753" lon="1.12522">
        <ele>450</ele>
        <time>2021-12-16T15:29:39+01:00</time>
      </trkpt>
      <trkpt lat="43.07763" lon="1.12551">
        <ele>451</ele>
        <time>2021-12-16T15:30:00+01:00</time>
      </trkpt>
      <trkpt lat="43.07771" lon="1.1258">
        <ele>448</ele>
        <time>2021-12-16T15:30:26+01:00</time>
      </trkpt>
      <trkpt lat="43.07777" lon="1.1261">
        <ele>446</ele>
        <time>2021-12-16T15:30:47+01:00</time>
      </trkpt>
      <trkpt lat="43.07775" lon="1.12641">
        <ele>448</ele>
        <time>2021-12-16T15:31:08+01:00</time>
      </trkpt>
      <trkpt lat="43.07768" lon="1.12671">
        <ele>448</ele>
        <time>2021-12-16T15:31:28+01:00</time>
      </trkpt>
      <trkpt lat="43.07762" lon="1.12701">
        <ele>447</ele>
        <time>2021-12-16T15:31:51+01:00</time>
      </trkpt>
      <trkpt lat="43.07756" lon="1.12732">
        <ele>452</ele>
        <time>2021-12-16T15:32:14+01:00</time>
      </trkpt>
      <trkpt lat="43.07751" lon="1.12761">
        <ele>455</ele>
        <time>2021-12-16T15:32:34+01:00</time>
      </trkpt>
      <trkpt lat="43.07739" lon="1.12788">
        <ele>457</ele>
        <time>2021-12-16T15:32:51+01:00</time>
      </trkpt>
      <trkpt lat="43.0773" lon="1.12817">
        <ele>458</ele>
        <time>2021-12-16T15:33:10+01:00</time>
      </trkpt>
      <trkpt lat="43.07718" lon="1.12843">
        <ele>457</ele>
        <time>2021-12-16T15:33:29+01:00</time>
      </trkpt>
      <trkpt lat="43.07706" lon="1.1287">
        <ele>452</ele>
        <time>2021-12-16T15:33:47+01:00</time>
      </trkpt>
      <trkpt lat="43.07698" lon="1.129">
        <ele>452</ele>
        <time>2021-12-16T15:34:07+01:00</time>
      </trkpt>
      <trkpt lat="43.0769" lon="1.1293">
        <ele>454</ele>
        <time>2021-12-16T15:34:25+01:00</time>
      </trkpt>
      <trkpt lat="43.07681" lon="1.12959">
        <ele>457</ele>
        <time>2021-12-16T15:34:46+01:00</time>
      </trkpt>
      <trkpt lat="43.07671" lon="1.12987">
        <ele>455</ele>
        <time>2021-12-16T15:35:06+01:00</time>
      </trkpt>
      <trkpt lat="43.07685" lon="1.13014">
        <ele>455</ele>
        <time>2021-12-16T15:35:42+01:00</time>
      </trkpt>
      <trkpt lat="43.07697" lon="1.13042">
        <ele>457</ele>
        <time>2021-12-16T15:36:01+01:00</time>
      </trkpt>
      <trkpt lat="43.07708" lon="1.13068">
        <ele>461</ele>
        <time>2021-12-16T15:36:18+01:00</time>
      </trkpt>
      <trkpt lat="43.07721" lon="1.13094">
        <ele>464</ele>
        <time>2021-12-16T15:36:40+01:00</time>
      </trkpt>
      <trkpt lat="43.07726" lon="1.13124">
        <ele>463</ele>
        <time>2021-12-16T15:37:03+01:00</time>
      </trkpt>
      <trkpt lat="43.07728" lon="1.13155">
        <ele>459</ele>
        <time>2021-12-16T15:37:26+01:00</time>
      </trkpt>
      <trkpt lat="43.07742" lon="1.1318">
        <ele>459</ele>
        <time>2021-12-16T15:37:48+01:00</time>
      </trkpt>
      <trkpt lat="43.07755" lon="1.13205">
        <ele>461</ele>
        <time>2021-12-16T15:38:08+01:00</time>
      </trkpt>
      <trkpt lat="43.0776" lon="1.13235">
        <ele>463</ele>
        <time>2021-12-16T15:38:30+01:00</time>
      </trkpt>
      <trkpt lat="43.07752" lon="1.13264">
        <ele>470</ele>
        <time>2021-12-16T15:38:54+01:00</time>
      </trkpt>
      <trkpt lat="43.07746" lon="1.13295">
        <ele>468</ele>
        <time>2021-12-16T15:39:18+01:00</time>
      </trkpt>
      <trkpt lat="43.07736" lon="1.13322">
        <ele>469</ele>
        <time>2021-12-16T15:39:39+01:00</time>
      </trkpt>
      <trkpt lat="43.07727" lon="1.13351">
        <ele>469</ele>
        <time>2021-12-16T15:40:04+01:00</time>
      </trkpt>
      <trkpt lat="43.07722" lon="1.13382">
        <ele>473</ele>
        <time>2021-12-16T15:40:25+01:00</time>
      </trkpt>
      <trkpt lat="43.07719" lon="1.13413">
        <ele>476</ele>
        <time>2021-12-16T15:40:47+01:00</time>
      </trkpt>
      <trkpt lat="43.07714" lon="1.13444">
        <ele>477</ele>
        <time>2021-12-16T15:41:09+01:00</time>
      </trkpt>
      <trkpt lat="43.0771" lon="1.13474">
        <ele>473</ele>
        <time>2021-12-16T15:41:29+01:00</time>
      </trkpt>
      <trkpt lat="43.07708" lon="1.13505">
        <ele>476</ele>
        <time>2021-12-16T15:41:49+01:00</time>
      </trkpt>
      <trkpt lat="43.07705" lon="1.13536">
        <ele>476</ele>
        <time>2021-12-16T15:42:08+01:00</time>
      </trkpt>
      <trkpt lat="43.07701" lon="1.13567">
        <ele>473</ele>
        <time>2021-12-16T15:42:30+01:00</time>
      </trkpt>
      <trkpt lat="43.07701" lon="1.13598">
        <ele>475</ele>
        <time>2021-12-16T15:42:52+01:00</time>
      </trkpt>
      <trkpt lat="43.077" lon="1.1363">
        <ele>480</ele>
        <time>2021-12-16T15:43:14+01:00</time>
      </trkpt>
      <trkpt lat="43.07697" lon="1.13661">
        <ele>483</ele>
        <time>2021-12-16T15:43:34+01:00</time>
      </trkpt>
      <trkpt lat="43.0769" lon="1.13691">
        <ele>487</ele>
        <time>2021-12-16T15:43:55+01:00</time>
      </trkpt>
      <trkpt lat="43.0768" lon="1.13719">
        <ele>484</ele>
        <time>2021-12-16T15:44:15+01:00</time>
      </trkpt>
      <trkpt lat="43.07671" lon="1.13748">
        <ele>479</ele>
        <time>2021-12-16T15:44:37+01:00</time>
      </trkpt>
      <trkpt lat="43.07669" lon="1.1378">
        <ele>480</ele>
        <time>2021-12-16T15:44:54+01:00</time>
      </trkpt>
      <trkpt lat="43.07684" lon="1.13804">
        <ele>476</ele>
        <time>2021-12-16T15:45:18+01:00</time>
      </trkpt>
      <trkpt lat="43.07707" lon="1.13811">
        <ele>475</ele>
        <time>2021-12-16T15:45:37+01:00</time>
      </trkpt>
      <trkpt lat="43.0773" lon="1.13817">
        <ele>474</ele>
        <time>2021-12-16T15:45:56+01:00</time>
      </trkpt>
      <trkpt lat="43.07752" lon="1.13824">
        <ele>472</ele>
        <time>2021-12-16T15:46:15+01:00</time>
      </trkpt>
      <trkpt lat="43.07773" lon="1.13839">
        <ele>475</ele>
        <time>2021-12-16T15:46:33+01:00</time>
      </trkpt>
      <trkpt lat="43.07784" lon="1.13866">
        <ele>478</ele>
        <time>2021-12-16T15:46:54+01:00</time>
      </trkpt>
      <trkpt lat="43.07776" lon="1.13896">
        <ele>483</ele>
        <time>2021-12-16T15:47:14+01:00</time>
      </trkpt>
      <trkpt lat="43.07769" lon="1.13927">
        <ele>485</ele>
        <time>2021-12-16T15:47:32+01:00</time>
      </trkpt>
      <trkpt lat="43.07761" lon="1.13957">
        <ele>485</ele>
        <time>2021-12-16T15:47:54+01:00</time>
      </trkpt>
      <trkpt lat="43.0775" lon="1.13985">
        <ele>488</ele>
        <time>2021-12-16T15:48:14+01:00</time>
      </trkpt>
      <trkpt lat="43.07737" lon="1.14011">
        <ele>490</ele>
        <time>2021-12-16T15:48:31+01:00</time>
      </trkpt>
      <trkpt lat="43.07726" lon="1.14039">
        <ele>487</ele>
        <time>2021-12-16T15:56:56+01:00</time>
      </trkpt>
      <trkpt lat="43.07727" lon="1.14071">
        <ele>484</ele>
        <time>2021-12-16T15:57:22+01:00</time>
      </trkpt>
      <trkpt lat="43.07722" lon="1.14102">
        <ele>488</ele>
        <time>2021-12-16T15:57:48+01:00</time>
      </trkpt>
      <trkpt lat="43.07723" lon="1.14133">
        <ele>483</ele>
        <time>2021-12-16T15:58:14+01:00</time>
      </trkpt>
      <trkpt lat="43.07719" lon="1.14163">
        <ele>492</ele>
        <time>2021-12-16T15:58:41+01:00</time>
      </trkpt>
      <trkpt lat="43.07736" lon="1.14184">
        <ele>496</ele>
        <time>2021-12-16T15:59:13+01:00</time>
      </trkpt>
      <trkpt lat="43.07749" lon="1.14158">
        <ele>493</ele>
        <time>2021-12-16T15:59:41+01:00</time>
      </trkpt>
      <trkpt lat="43.07765" lon="1.14136">
        <ele>496</ele>
        <time>2021-12-16T16:00:03+01:00</time>
      </trkpt>
      <trkpt lat="43.07784" lon="1.14117">
        <ele>501</ele>
        <time>2021-12-16T16:00:30+01:00</time>
      </trkpt>
      <trkpt lat="43.07803" lon="1.14099">
        <ele>503</ele>
        <time>2021-12-16T16:00:59+01:00</time>
      </trkpt>
      <trkpt lat="43.07822" lon="1.1408">
        <ele>505</ele>
        <time>2021-12-16T16:01:29+01:00</time>
      </trkpt>
      <trkpt lat="43.07835" lon="1.14055">
        <ele>507</ele>
        <time>2021-12-16T16:01:54+01:00</time>
      </trkpt>
      <trkpt lat="43.07852" lon="1.14033">
        <ele>510</ele>
        <time>2021-12-16T16:02:19+01:00</time>
      </trkpt>
      <trkpt lat="43.07869" lon="1.14012">
        <ele>516</ele>
        <time>2021-12-16T16:02:51+01:00</time>
      </trkpt>
      <trkpt lat="43.07888" lon="1.13995">
        <ele>519</ele>
        <time>2021-12-16T16:03:20+01:00</time>
      </trkpt>
      <trkpt lat="43.07906" lon="1.13976">
        <ele>526</ele>
        <time>2021-12-16T16:03:49+01:00</time>
      </trkpt>
      <trkpt lat="43.07923" lon="1.13997">
        <ele>534</ele>
        <time>2021-12-16T16:04:49+01:00</time>
      </trkpt>
      <trkpt lat="43.07917" lon="1.14027">
        <ele>536</ele>
        <time>2021-12-16T16:05:14+01:00</time>
      </trkpt>
      <trkpt lat="43.07907" lon="1.14056">
        <ele>537</ele>
        <time>2021-12-16T16:05:32+01:00</time>
      </trkpt>
      <trkpt lat="43.07899" lon="1.14086">
        <ele>536</ele>
        <time>2021-12-16T16:05:54+01:00</time>
      </trkpt>
      <trkpt lat="43.07896" lon="1.14117">
        <ele>540</ele>
        <time>2021-12-16T16:06:22+01:00</time>
      </trkpt>
      <trkpt lat="43.07902" lon="1.14147">
        <ele>538</ele>
        <time>2021-12-16T16:06:48+01:00</time>
      </trkpt>
      <trkpt lat="43.07898" lon="1.14178">
        <ele>545</ele>
        <time>2021-12-16T16:07:12+01:00</time>
      </trkpt>
      <trkpt lat="43.07905" lon="1.14208">
        <ele>550</ele>
        <time>2021-12-16T16:07:54+01:00</time>
      </trkpt>
      <trkpt lat="43.07923" lon="1.14229">
        <ele>557</ele>
        <time>2021-12-16T16:08:18+01:00</time>
      </trkpt>
      <trkpt lat="43.07943" lon="1.14245">
        <ele>560</ele>
        <time>2021-12-16T16:08:43+01:00</time>
      </trkpt>
      <trkpt lat="43.07959" lon="1.14268">
        <ele>559</ele>
        <time>2021-12-16T16:09:04+01:00</time>
      </trkpt>
      <trkpt lat="43.07966" lon="1.14298">
        <ele>560</ele>
        <time>2021-12-16T16:09:28+01:00</time>
      </trkpt>
      <trkpt lat="43.07971" lon="1.14328">
        <ele>557</ele>
        <time>2021-12-16T16:10:08+01:00</time>
      </trkpt>
      <trkpt lat="43.07989" lon="1.14348">
        <ele>560</ele>
        <time>2021-12-16T16:13:17+01:00</time>
      </trkpt>
      <trkpt lat="43.08009" lon="1.14336">
        <ele>564</ele>
        <time>2021-12-16T16:13:52+01:00</time>
      </trkpt>
      <trkpt lat="43.08017" lon="1.14306">
        <ele>565</ele>
        <time>2021-12-16T16:14:19+01:00</time>
      </trkpt>
      <trkpt lat="43.08027" lon="1.14278">
        <ele>567</ele>
        <time>2021-12-16T16:14:45+01:00</time>
      </trkpt>
      <trkpt lat="43.08042" lon="1.14254">
        <ele>567</ele>
        <time>2021-12-16T16:15:09+01:00</time>
      </trkpt>
      <trkpt lat="43.08049" lon="1.14224">
        <ele>571</ele>
        <time>2021-12-16T16:15:31+01:00</time>
      </trkpt>
      <trkpt lat="43.08054" lon="1.14194">
        <ele>572</ele>
        <time>2021-12-16T16:15:53+01:00</time>
      </trkpt>
      <trkpt lat="43.08065" lon="1.14167">
        <ele>574</ele>
        <time>2021-12-16T16:16:16+01:00</time>
      </trkpt>
      <trkpt lat="43.08077" lon="1.1414">
        <ele>576</ele>
        <time>2021-12-16T16:16:37+01:00</time>
      </trkpt>
      <trkpt lat="43.08095" lon="1.14121">
        <ele>577</ele>
        <time>2021-12-16T16:17:01+01:00</time>
      </trkpt>
      <trkpt lat="43.08099" lon="1.1409">
        <ele>577</ele>
        <time>2021-12-16T16:17:24+01:00</time>
      </trkpt>
      <trkpt lat="43.08111" lon="1.14064">
        <ele>573</ele>
        <time>2021-12-16T16:17:53+01:00</time>
      </trkpt>
      <trkpt lat="43.08123" lon="1.14036">
        <ele>576</ele>
        <time>2021-12-16T16:18:18+01:00</time>
      </trkpt>
      <trkpt lat="43.08131" lon="1.14007">
        <ele>579</ele>
        <time>2021-12-16T16:19:04+01:00</time>
      </trkpt>
      <trkpt lat="43.0814" lon="1.13979">
        <ele>578</ele>
        <time>2021-12-16T16:19:27+01:00</time>
      </trkpt>
      <trkpt lat="43.08146" lon="1.13948">
        <ele>576</ele>
        <time>2021-12-16T16:19:50+01:00</time>
      </trkpt>
      <trkpt lat="43.08154" lon="1.13919">
        <ele>578</ele>
        <time>2021-12-16T16:20:14+01:00</time>
      </trkpt>
      <trkpt lat="43.08159" lon="1.13888">
        <ele>579</ele>
        <time>2021-12-16T16:20:49+01:00</time>
      </trkpt>
      <trkpt lat="43.08165" lon="1.13857">
        <ele>580</ele>
        <time>2021-12-16T16:23:02+01:00</time>
      </trkpt>
      <trkpt lat="43.08174" lon="1.13828">
        <ele>579</ele>
        <time>2021-12-16T16:23:16+01:00</time>
      </trkpt>
      <trkpt lat="43.08184" lon="1.13799">
        <ele>579</ele>
        <time>2021-12-16T16:23:33+01:00</time>
      </trkpt>
      <trkpt lat="43.08194" lon="1.1377">
        <ele>580</ele>
        <time>2021-12-16T16:23:53+01:00</time>
      </trkpt>
      <trkpt lat="43.08208" lon="1.13745">
        <ele>580</ele>
        <time>2021-12-16T16:24:28+01:00</time>
      </trkpt>
      <trkpt lat="43.08211" lon="1.13714">
        <ele>579</ele>
        <time>2021-12-16T16:24:46+01:00</time>
      </trkpt>
      <trkpt lat="43.08213" lon="1.13682">
        <ele>581</ele>
        <time>2021-12-16T16:25:18+01:00</time>
      </trkpt>
      <trkpt lat="43.08219" lon="1.13651">
        <ele>583</ele>
        <time>2021-12-16T16:25:37+01:00</time>
      </trkpt>
      <trkpt lat="43.08226" lon="1.1362">
        <ele>584</ele>
        <time>2021-12-16T16:26:04+01:00</time>
      </trkpt>
      <trkpt lat="43.0823" lon="1.13589">
        <ele>582</ele>
        <time>2021-12-16T16:26:31+01:00</time>
      </trkpt>
      <trkpt lat="43.08237" lon="1.13559">
        <ele>581</ele>
        <time>2021-12-16T16:26:53+01:00</time>
      </trkpt>
      <trkpt lat="43.08244" lon="1.13529">
        <ele>580</ele>
        <time>2021-12-16T16:27:18+01:00</time>
      </trkpt>
      <trkpt lat="43.0825" lon="1.13499">
        <ele>577</ele>
        <time>2021-12-16T16:27:44+01:00</time>
      </trkpt>
      <trkpt lat="43.08254" lon="1.13469">
        <ele>578</ele>
        <time>2021-12-16T16:28:07+01:00</time>
      </trkpt>
      <trkpt lat="43.08261" lon="1.13439">
        <ele>578</ele>
        <time>2021-12-16T16:28:31+01:00</time>
      </trkpt>
      <trkpt lat="43.08269" lon="1.13409">
        <ele>576</ele>
        <time>2021-12-16T16:28:55+01:00</time>
      </trkpt>
      <trkpt lat="43.08275" lon="1.1338">
        <ele>576</ele>
        <time>2021-12-16T16:29:19+01:00</time>
      </trkpt>
      <trkpt lat="43.08285" lon="1.13351">
        <ele>576</ele>
        <time>2021-12-16T16:29:50+01:00</time>
      </trkpt>
      <trkpt lat="43.08288" lon="1.1332">
        <ele>574</ele>
        <time>2021-12-16T16:30:21+01:00</time>
      </trkpt>
      <trkpt lat="43.08298" lon="1.13291">
        <ele>576</ele>
        <time>2021-12-16T16:31:16+01:00</time>
      </trkpt>
      <trkpt lat="43.08311" lon="1.13265">
        <ele>580</ele>
        <time>2021-12-16T16:31:44+01:00</time>
      </trkpt>
      <trkpt lat="43.08317" lon="1.13235">
        <ele>582</ele>
        <time>2021-12-16T16:32:11+01:00</time>
      </trkpt>
      <trkpt lat="43.08321" lon="1.13204">
        <ele>585</ele>
        <time>2021-12-16T16:33:53+01:00</time>
      </trkpt>
      <trkpt lat="43.0833" lon="1.13176">
        <ele>581</ele>
        <time>2021-12-16T16:34:25+01:00</time>
      </trkpt>
      <trkpt lat="43.08333" lon="1.13145">
        <ele>581</ele>
        <time>2021-12-16T16:34:55+01:00</time>
      </trkpt>
      <trkpt lat="43.08337" lon="1.13114">
        <ele>580</ele>
        <time>2021-12-16T16:35:26+01:00</time>
      </trkpt>
      <trkpt lat="43.08339" lon="1.13084">
        <ele>578</ele>
        <time>2021-12-16T16:36:00+01:00</time>
      </trkpt>
      <trkpt lat="43.0834" lon="1.13052">
        <ele>573</ele>
        <time>2021-12-16T16:36:31+01:00</time>
      </trkpt>
      <trkpt lat="43.08337" lon="1.13021">
        <ele>568</ele>
        <time>2021-12-16T16:37:50+01:00</time>
      </trkpt>
      <trkpt lat="43.08348" lon="1.12994">
        <ele>568</ele>
        <time>2021-12-16T16:38:27+01:00</time>
      </trkpt>
      <trkpt lat="43.08353" lon="1.12963">
        <ele>564</ele>
        <time>2021-12-16T16:38:57+01:00</time>
      </trkpt>
      <trkpt lat="43.0836" lon="1.12933">
        <ele>564</ele>
        <time>2021-12-16T16:39:43+01:00</time>
      </trkpt>
      <trkpt lat="43.08366" lon="1.12903">
        <ele>560</ele>
        <time>2021-12-16T16:40:05+01:00</time>
      </trkpt>
      <trkpt lat="43.0837" lon="1.12872">
        <ele>557</ele>
        <time>2021-12-16T16:40:36+01:00</time>
      </trkpt>
      <trkpt lat="43.08377" lon="1.12841">
        <ele>556</ele>
        <time>2021-12-16T16:41:11+01:00</time>
      </trkpt>
      <trkpt lat="43.0839" lon="1.12815">
        <ele>554</ele>
        <time>2021-12-16T16:41:32+01:00</time>
      </trkpt>
      <trkpt lat="43.08401" lon="1.12788">
        <ele>548</ele>
        <time>2021-12-16T16:42:14+01:00</time>
      </trkpt>
      <trkpt lat="43.08406" lon="1.12756">
        <ele>544</ele>
        <time>2021-12-16T16:42:40+01:00</time>
      </trkpt>
      <trkpt lat="43.08413" lon="1.12726">
        <ele>541</ele>
        <time>2021-12-16T16:43:11+01:00</time>
      </trkpt>
      <trkpt lat="43.08423" lon="1.12697">
        <ele>537</ele>
        <time>2021-12-16T16:43:29+01:00</time>
      </trkpt>
      <trkpt lat="43.08432" lon="1.12667">
        <ele>533</ele>
        <time>2021-12-16T16:43:55+01:00</time>
      </trkpt>
      <trkpt lat="43.08437" lon="1.12637">
        <ele>527</ele>
        <time>2021-12-16T16:44:23+01:00</time>
      </trkpt>
      <trkpt lat="43.08445" lon="1.12607">
        <ele>522</ele>
        <time>2021-12-16T16:45:01+01:00</time>
      </trkpt>
      <trkpt lat="43.08451" lon="1.12576">
        <ele>514</ele>
        <time>2021-12-16T16:46:12+01:00</time>
      </trkpt>
      <trkpt lat="43.08459" lon="1.12546">
        <ele>509</ele>
        <time>2021-12-16T16:46:52+01:00</time>
      </trkpt>
      <trkpt lat="43.08462" lon="1.12515">
        <ele>501</ele>
        <time>2021-12-16T16:47:31+01:00</time>
      </trkpt>
      <trkpt lat="43.08471" lon="1.12486">
        <ele>488</ele>
        <time>2021-12-16T16:47:57+01:00</time>
      </trkpt>
      <trkpt lat="43.0848" lon="1.12457">
        <ele>483</ele>
        <time>2021-12-16T16:48:31+01:00</time>
      </trkpt>
      <trkpt lat="43.08488" lon="1.12428">
        <ele>479</ele>
        <time>2021-12-16T16:49:03+01:00</time>
      </trkpt>
      <trkpt lat="43.08495" lon="1.12397">
        <ele>477</ele>
        <time>2021-12-16T16:50:04+01:00</time>
      </trkpt>
      <trkpt lat="43.08502" lon="1.12368">
        <ele>474</ele>
        <time>2021-12-16T16:50:28+01:00</time>
      </trkpt>
      <trkpt lat="43.08515" lon="1.12341">
        <ele>471</ele>
        <time>2021-12-16T16:50:49+01:00</time>
      </trkpt>
      <trkpt lat="43.08528" lon="1.12316">
        <ele>467</ele>
        <time>2021-12-16T16:51:18+01:00</time>
      </trkpt>
      <trkpt lat="43.08544" lon="1.12293">
        <ele>462</ele>
        <time>2021-12-16T16:51:43+01:00</time>
      </trkpt>
      <trkpt lat="43.08568" lon="1.12288">
        <ele>458</ele>
        <time>2021-12-16T16:52:13+01:00</time>
      </trkpt>
      <trkpt lat="43.08591" lon="1.1229">
        <ele>456</ele>
        <time>2021-12-16T16:52:50+01:00</time>
      </trkpt>
      <trkpt lat="43.08611" lon="1.12304">
        <ele>455</ele>
        <time>2021-12-16T16:54:28+01:00</time>
      </trkpt>
      <trkpt lat="43.08634" lon="1.12299">
        <ele>452</ele>
        <time>2021-12-16T16:54:53+01:00</time>
      </trkpt>
      <trkpt lat="43.08657" lon="1.12292">
        <ele>446</ele>
        <time>2021-12-16T16:55:09+01:00</time>
      </trkpt>
      <trkpt lat="43.08678" lon="1.12282">
        <ele>445</ele>
        <time>2021-12-16T16:55:30+01:00</time>
      </trkpt>
      <trkpt lat="43.08701" lon="1.12276">
        <ele>442</ele>
        <time>2021-12-16T16:55:50+01:00</time>
      </trkpt>
      <trkpt lat="43.08723" lon="1.1227">
        <ele>441</ele>
        <time>2021-12-16T16:56:16+01:00</time>
      </trkpt>
      <trkpt lat="43.08746" lon="1.12271">
        <ele>436</ele>
        <time>2021-12-16T16:56:49+01:00</time>
      </trkpt>
      <trkpt lat="43.08768" lon="1.12274">
        <ele>437</ele>
        <time>2021-12-16T16:57:12+01:00</time>
      </trkpt>
      <trkpt lat="43.08785" lon="1.12295">
        <ele>436</ele>
        <time>2021-12-16T16:57:42+01:00</time>
      </trkpt>
      <trkpt lat="43.088" lon="1.12318">
        <ele>432</ele>
        <time>2021-12-16T16:58:05+01:00</time>
      </trkpt>
      <trkpt lat="43.08812" lon="1.12346">
        <ele>429</ele>
        <time>2021-12-16T16:58:33+01:00</time>
      </trkpt>
      <trkpt lat="43.08831" lon="1.12364">
        <ele>421</ele>
        <time>2021-12-16T16:59:06+01:00</time>
      </trkpt>
      <trkpt lat="43.08854" lon="1.1237">
        <ele>422</ele>
        <time>2021-12-16T16:59:23+01:00</time>
      </trkpt>
      <trkpt lat="43.08873" lon="1.12386">
        <ele>419</ele>
        <time>2021-12-16T16:59:46+01:00</time>
      </trkpt>
      <trkpt lat="43.08896" lon="1.12391">
        <ele>419</ele>
        <time>2021-12-16T17:00:13+01:00</time>
      </trkpt>
      <trkpt lat="43.08919" lon="1.12384">
        <ele>416</ele>
        <time>2021-12-16T17:00:35+01:00</time>
      </trkpt>
      <trkpt lat="43.0894" lon="1.12373">
        <ele>416</ele>
        <time>2021-12-16T17:02:09+01:00</time>
      </trkpt>
      <trkpt lat="43.08962" lon="1.12362">
        <ele>419</ele>
        <time>2021-12-16T17:02:30+01:00</time>
      </trkpt>
      <trkpt lat="43.08986" lon="1.1236">
        <ele>419</ele>
        <time>2021-12-16T17:03:03+01:00</time>
      </trkpt>
      <trkpt lat="43.09009" lon="1.12357">
        <ele>418</ele>
        <time>2021-12-16T17:03:14+01:00</time>
      </trkpt>
      <trkpt lat="43.09032" lon="1.12359">
        <ele>418</ele>
        <time>2021-12-16T17:03:32+01:00</time>
      </trkpt>
      <trkpt lat="43.09055" lon="1.12356">
        <ele>419</ele>
        <time>2021-12-16T17:03:47+01:00</time>
      </trkpt>
      <trkpt lat="43.09078" lon="1.12357">
        <ele>420</ele>
        <time>2021-12-16T17:04:09+01:00</time>
      </trkpt>
      <trkpt lat="43.09102" lon="1.12353">
        <ele>419</ele>
        <time>2021-12-16T17:04:38+01:00</time>
      </trkpt>
      <trkpt lat="43.09117" lon="1.12377">
        <ele>418</ele>
        <time>2021-12-16T17:04:58+01:00</time>
      </trkpt>
      <trkpt lat="43.09134" lon="1.12397">
        <ele>418</ele>
        <time>2021-12-16T17:05:19+01:00</time>
      </trkpt>
      <trkpt lat="43.09138" lon="1.12428">
        <ele>414</ele>
        <time>2021-12-16T17:05:44+01:00</time>
      </trkpt>
      <trkpt lat="43.09154" lon="1.12452">
        <ele>414</ele>
        <time>2021-12-16T17:06:09+01:00</time>
      </trkpt>
      <trkpt lat="43.09176" lon="1.12444">
        <ele>413</ele>
        <time>2021-12-16T17:06:30+01:00</time>
      </trkpt>
      <trkpt lat="43.09199" lon="1.12441">
        <ele>414</ele>
        <time>2021-12-16T17:06:53+01:00</time>
      </trkpt>
      <trkpt lat="43.09222" lon="1.12444">
        <ele>413</ele>
        <time>2021-12-16T17:07:16+01:00</time>
      </trkpt>
      <trkpt lat="43.09244" lon="1.12449">
        <ele>414</ele>
        <time>2021-12-16T17:07:40+01:00</time>
      </trkpt>
      <trkpt lat="43.09243" lon="1.1248">
        <ele>413</ele>
        <time>2021-12-16T17:08:59+01:00</time>
      </trkpt>
    </trkseg>
  </trk>
</gpx>